sensor_id;sensor_type;location;lat;lon;timestamp;P1;durP1;ratioP1;P2;durP2;ratioP2
22260;SDS011;11299;43.202;27.920;2022-08-24T00:00:36;47.92;;;11.43;;
22260;SDS011;11299;43.202;27.920;2022-08-24T00:03:02;43.53;;;10.57;;
22260;SDS011;11299;43.202;27.920;2022-08-24T00:05:28;46.35;;;11.43;;
22260;SDS011;11299;43.202;27.920;2022-08-24T00:07:53;40.67;;;11.90;;
22260;SDS011;11299;43.202;27.920;2022-08-24T00:10:19;45.38;;;11.20;;
22260;SDS011;11299;43.202;27.920;2022-08-24T00:12:45;39.83;;;10.40;;
22260;SDS011;11299;43.202;27.920;2022-08-24T00:15:12;37.42;;;11.13;;
22260;SDS011;11299;43.202;27.920;2022-08-24T00:17:40;34.70;;;10.05;;
22260;SDS011;11299;43.202;27.920;2022-08-24T00:20:06;26.63;;;10.10;;
22260;SDS011;11299;43.202;27.920;2022-08-24T00:22:33;31.00;;;11.05;;
22260;SDS011;11299;43.202;27.920;2022-08-24T00:24:59;34.33;;;11.15;;
22260;SDS011;11299;43.202;27.920;2022-08-24T00:27:24;27.25;;;11.02;;
22260;SDS011;11299;43.202;27.920;2022-08-24T00:29:51;34.78;;;11.45;;
22260;SDS011;11299;43.202;27.920;2022-08-24T00:32:16;32.97;;;11.32;;
22260;SDS011;11299;43.202;27.920;2022-08-24T00:34:42;30.98;;;9.60;;
22260;SDS011;11299;43.202;27.920;2022-08-24T00:37:08;32.40;;;10.32;;
22260;SDS011;11299;43.202;27.920;2022-08-24T00:39:34;33.88;;;10.02;;
22260;SDS011;11299;43.202;27.920;2022-08-24T00:41:59;25.70;;;9.77;;
22260;SDS011;11299;43.202;27.920;2022-08-24T00:44:25;32.25;;;10.02;;
22260;SDS011;11299;43.202;27.920;2022-08-24T00:49:28;32.63;;;10.07;;
22260;SDS011;11299;43.202;27.920;2022-08-24T00:52:06;43.03;;;11.07;;
22260;SDS011;11299;43.202;27.920;2022-08-24T00:54:36;36.20;;;10.10;;
22260;SDS011;11299;43.202;27.920;2022-08-24T00:57:05;34.28;;;11.45;;
22260;SDS011;11299;43.202;27.920;2022-08-24T00:59:41;33.45;;;11.77;;
22260;SDS011;11299;43.202;27.920;2022-08-24T01:02:13;30.20;;;10.38;;
22260;SDS011;11299;43.202;27.920;2022-08-24T01:04:44;30.75;;;10.02;;
22260;SDS011;11299;43.202;27.920;2022-08-24T01:07:22;29.65;;;9.75;;
22260;SDS011;11299;43.202;27.920;2022-08-24T01:09:50;33.88;;;10.10;;
22260;SDS011;11299;43.202;27.920;2022-08-24T01:12:17;25.63;;;10.50;;
22260;SDS011;11299;43.202;27.920;2022-08-24T01:14:43;37.53;;;10.18;;
22260;SDS011;11299;43.202;27.920;2022-08-24T01:17:09;35.92;;;10.60;;
22260;SDS011;11299;43.202;27.920;2022-08-24T01:19:56;30.95;;;9.98;;
22260;SDS011;11299;43.202;27.920;2022-08-24T01:25:05;33.83;;;10.10;;
22260;SDS011;11299;43.202;27.920;2022-08-24T01:27:31;38.50;;;10.73;;
22260;SDS011;11299;43.202;27.920;2022-08-24T01:29:59;30.20;;;10.43;;
22260;SDS011;11299;43.202;27.920;2022-08-24T01:32:26;38.00;;;11.07;;
22260;SDS011;11299;43.202;27.920;2022-08-24T01:34:53;41.20;;;11.55;;
22260;SDS011;11299;43.202;27.920;2022-08-24T01:37:19;27.02;;;10.25;;
22260;SDS011;11299;43.202;27.920;2022-08-24T01:39:47;47.65;;;11.48;;
22260;SDS011;11299;43.202;27.920;2022-08-24T01:42:13;35.88;;;10.68;;
22260;SDS011;11299;43.202;27.920;2022-08-24T01:44:41;30.27;;;10.77;;
22260;SDS011;11299;43.202;27.920;2022-08-24T01:47:09;31.08;;;9.70;;
22260;SDS011;11299;43.202;27.920;2022-08-24T01:49:37;35.30;;;10.27;;
22260;SDS011;11299;43.202;27.920;2022-08-24T01:52:06;35.22;;;10.45;;
22260;SDS011;11299;43.202;27.920;2022-08-24T01:54:33;31.85;;;9.60;;
22260;SDS011;11299;43.202;27.920;2022-08-24T01:56:59;32.35;;;10.25;;
22260;SDS011;11299;43.202;27.920;2022-08-24T01:59:25;34.30;;;9.80;;
22260;SDS011;11299;43.202;27.920;2022-08-24T02:01:52;41.45;;;10.63;;
22260;SDS011;11299;43.202;27.920;2022-08-24T02:04:20;32.05;;;10.45;;
22260;SDS011;11299;43.202;27.920;2022-08-24T02:06:47;38.65;;;11.10;;
22260;SDS011;11299;43.202;27.920;2022-08-24T02:09:12;35.58;;;11.38;;
22260;SDS011;11299;43.202;27.920;2022-08-24T02:11:38;50.40;;;11.93;;
22260;SDS011;11299;43.202;27.920;2022-08-24T02:14:05;36.33;;;11.70;;
22260;SDS011;11299;43.202;27.920;2022-08-24T02:16:31;42.53;;;12.30;;
22260;SDS011;11299;43.202;27.920;2022-08-24T02:18:57;50.00;;;12.38;;
22260;SDS011;11299;43.202;27.920;2022-08-24T02:21:23;36.53;;;10.85;;
22260;SDS011;11299;43.202;27.920;2022-08-24T02:23:49;44.47;;;11.40;;
22260;SDS011;11299;43.202;27.920;2022-08-24T02:26:16;46.92;;;10.75;;
22260;SDS011;11299;43.202;27.920;2022-08-24T02:28:42;44.10;;;11.35;;
22260;SDS011;11299;43.202;27.920;2022-08-24T02:31:08;36.92;;;10.45;;
22260;SDS011;11299;43.202;27.920;2022-08-24T02:33:36;46.03;;;11.43;;
22260;SDS011;11299;43.202;27.920;2022-08-24T02:36:03;53.00;;;12.45;;
22260;SDS011;11299;43.202;27.920;2022-08-24T02:38:29;49.92;;;10.88;;
22260;SDS011;11299;43.202;27.920;2022-08-24T02:40:55;50.72;;;11.45;;
22260;SDS011;11299;43.202;27.920;2022-08-24T02:43:22;54.22;;;11.02;;
22260;SDS011;11299;43.202;27.920;2022-08-24T02:45:48;53.17;;;12.57;;
22260;SDS011;11299;43.202;27.920;2022-08-24T02:48:14;57.03;;;11.98;;
22260;SDS011;11299;43.202;27.920;2022-08-24T02:50:41;64.40;;;11.52;;
22260;SDS011;11299;43.202;27.920;2022-08-24T02:53:10;55.00;;;11.43;;
22260;SDS011;11299;43.202;27.920;2022-08-24T02:55:38;49.45;;;11.38;;
22260;SDS011;11299;43.202;27.920;2022-08-24T02:58:05;58.53;;;11.57;;
22260;SDS011;11299;43.202;27.920;2022-08-24T03:00:32;53.97;;;11.68;;
22260;SDS011;11299;43.202;27.920;2022-08-24T03:03:00;52.97;;;10.40;;
22260;SDS011;11299;43.202;27.920;2022-08-24T03:05:25;57.17;;;10.80;;
22260;SDS011;11299;43.202;27.920;2022-08-24T03:07:51;64.40;;;11.70;;
22260;SDS011;11299;43.202;27.920;2022-08-24T03:10:17;56.35;;;12.13;;
22260;SDS011;11299;43.202;27.920;2022-08-24T03:12:42;51.40;;;9.77;;
22260;SDS011;11299;43.202;27.920;2022-08-24T03:15:09;49.35;;;11.02;;
22260;SDS011;11299;43.202;27.920;2022-08-24T03:17:36;63.97;;;11.45;;
22260;SDS011;11299;43.202;27.920;2022-08-24T03:20:04;59.35;;;10.30;;
22260;SDS011;11299;43.202;27.920;2022-08-24T03:22:35;66.82;;;10.98;;
22260;SDS011;11299;43.202;27.920;2022-08-24T03:25:01;58.03;;;11.90;;
22260;SDS011;11299;43.202;27.920;2022-08-24T03:27:27;69.20;;;11.82;;
22260;SDS011;11299;43.202;27.920;2022-08-24T03:29:53;49.25;;;11.23;;
22260;SDS011;11299;43.202;27.920;2022-08-24T03:32:18;48.33;;;10.68;;
22260;SDS011;11299;43.202;27.920;2022-08-24T03:34:44;53.80;;;10.32;;
22260;SDS011;11299;43.202;27.920;2022-08-24T03:37:10;52.90;;;10.40;;
22260;SDS011;11299;43.202;27.920;2022-08-24T03:39:36;55.17;;;10.60;;
22260;SDS011;11299;43.202;27.920;2022-08-24T03:42:02;52.35;;;10.55;;
22260;SDS011;11299;43.202;27.920;2022-08-24T03:44:28;62.58;;;10.48;;
22260;SDS011;11299;43.202;27.920;2022-08-24T03:46:54;58.25;;;11.40;;
22260;SDS011;11299;43.202;27.920;2022-08-24T03:49:19;53.97;;;10.55;;
22260;SDS011;11299;43.202;27.920;2022-08-24T03:51:46;48.67;;;9.55;;
22260;SDS011;11299;43.202;27.920;2022-08-24T03:54:11;58.28;;;10.23;;
22260;SDS011;11299;43.202;27.920;2022-08-24T03:56:38;43.78;;;10.45;;
22260;SDS011;11299;43.202;27.920;2022-08-24T03:59:04;45.58;;;9.13;;
22260;SDS011;11299;43.202;27.920;2022-08-24T04:01:31;47.53;;;9.18;;
22260;SDS011;11299;43.202;27.920;2022-08-24T04:03:57;53.25;;;10.02;;
22260;SDS011;11299;43.202;27.920;2022-08-24T04:06:24;53.55;;;9.40;;
22260;SDS011;11299;43.202;27.920;2022-08-24T04:08:50;47.88;;;8.85;;
22260;SDS011;11299;43.202;27.920;2022-08-24T04:11:24;56.45;;;9.77;;
22260;SDS011;11299;43.202;27.920;2022-08-24T04:13:52;48.10;;;9.45;;
22260;SDS011;11299;43.202;27.920;2022-08-24T04:16:20;48.58;;;9.85;;
22260;SDS011;11299;43.202;27.920;2022-08-24T04:18:47;47.38;;;7.82;;
22260;SDS011;11299;43.202;27.920;2022-08-24T04:23:43;47.47;;;8.80;;
22260;SDS011;11299;43.202;27.920;2022-08-24T04:26:09;49.58;;;8.20;;
22260;SDS011;11299;43.202;27.920;2022-08-24T04:28:34;43.55;;;8.13;;
22260;SDS011;11299;43.202;27.920;2022-08-24T04:31:02;46.90;;;8.00;;
22260;SDS011;11299;43.202;27.920;2022-08-24T04:33:29;36.08;;;7.15;;
22260;SDS011;11299;43.202;27.920;2022-08-24T04:35:55;48.20;;;8.23;;
22260;SDS011;11299;43.202;27.920;2022-08-24T04:38:21;49.08;;;8.15;;
22260;SDS011;11299;43.202;27.920;2022-08-24T04:40:47;40.35;;;8.05;;
22260;SDS011;11299;43.202;27.920;2022-08-24T04:43:13;40.95;;;8.07;;
22260;SDS011;11299;43.202;27.920;2022-08-24T04:45:40;45.50;;;7.93;;
22260;SDS011;11299;43.202;27.920;2022-08-24T04:48:07;45.40;;;8.00;;
22260;SDS011;11299;43.202;27.920;2022-08-24T04:50:34;41.22;;;8.05;;
22260;SDS011;11299;43.202;27.920;2022-08-24T04:53:01;41.83;;;7.97;;
22260;SDS011;11299;43.202;27.920;2022-08-24T04:55:28;35.70;;;7.57;;
22260;SDS011;11299;43.202;27.920;2022-08-24T04:57:53;43.72;;;7.95;;
22260;SDS011;11299;43.202;27.920;2022-08-24T05:00:19;33.20;;;6.53;;
22260;SDS011;11299;43.202;27.920;2022-08-24T05:02:45;34.30;;;7.47;;
22260;SDS011;11299;43.202;27.920;2022-08-24T05:05:11;40.20;;;7.65;;
22260;SDS011;11299;43.202;27.920;2022-08-24T05:07:37;36.15;;;7.50;;
22260;SDS011;11299;43.202;27.920;2022-08-24T05:10:03;34.88;;;8.27;;
22260;SDS011;11299;43.202;27.920;2022-08-24T05:12:30;40.13;;;7.05;;
22260;SDS011;11299;43.202;27.920;2022-08-24T05:14:56;43.85;;;7.70;;
22260;SDS011;11299;43.202;27.920;2022-08-24T05:17:23;36.38;;;8.32;;
22260;SDS011;11299;43.202;27.920;2022-08-24T05:19:50;47.38;;;8.43;;
22260;SDS011;11299;43.202;27.920;2022-08-24T05:22:17;41.90;;;7.80;;
22260;SDS011;11299;43.202;27.920;2022-08-24T05:24:43;40.05;;;7.97;;
22260;SDS011;11299;43.202;27.920;2022-08-24T05:27:09;45.08;;;7.80;;
22260;SDS011;11299;43.202;27.920;2022-08-24T05:29:34;28.48;;;6.25;;
22260;SDS011;11299;43.202;27.920;2022-08-24T05:32:00;46.83;;;7.78;;
22260;SDS011;11299;43.202;27.920;2022-08-24T05:34:25;35.80;;;7.18;;
22260;SDS011;11299;43.202;27.920;2022-08-24T05:36:51;37.17;;;7.22;;
22260;SDS011;11299;43.202;27.920;2022-08-24T05:39:17;40.65;;;7.22;;
22260;SDS011;11299;43.202;27.920;2022-08-24T05:41:43;37.10;;;6.65;;
22260;SDS011;11299;43.202;27.920;2022-08-24T05:44:10;33.28;;;7.10;;
22260;SDS011;11299;43.202;27.920;2022-08-24T05:46:38;27.77;;;5.88;;
22260;SDS011;11299;43.202;27.920;2022-08-24T05:49:04;42.60;;;7.63;;
22260;SDS011;11299;43.202;27.920;2022-08-24T05:51:30;25.77;;;6.35;;
22260;SDS011;11299;43.202;27.920;2022-08-24T05:53:56;31.58;;;6.78;;
22260;SDS011;11299;43.202;27.920;2022-08-24T05:56:23;38.83;;;7.38;;
22260;SDS011;11299;43.202;27.920;2022-08-24T05:58:49;33.30;;;7.10;;
22260;SDS011;11299;43.202;27.920;2022-08-24T06:01:16;38.33;;;6.65;;
22260;SDS011;11299;43.202;27.920;2022-08-24T06:03:46;37.63;;;7.05;;
22260;SDS011;11299;43.202;27.920;2022-08-24T06:06:13;31.80;;;6.38;;
22260;SDS011;11299;43.202;27.920;2022-08-24T06:08:41;36.47;;;6.65;;
22260;SDS011;11299;43.202;27.920;2022-08-24T06:11:10;46.35;;;7.22;;
22260;SDS011;11299;43.202;27.920;2022-08-24T06:13:36;45.97;;;7.68;;
22260;SDS011;11299;43.202;27.920;2022-08-24T06:16:07;46.67;;;7.28;;
22260;SDS011;11299;43.202;27.920;2022-08-24T06:18:35;34.63;;;7.43;;
22260;SDS011;11299;43.202;27.920;2022-08-24T06:21:05;40.83;;;7.72;;
22260;SDS011;11299;43.202;27.920;2022-08-24T06:23:34;30.10;;;6.75;;
22260;SDS011;11299;43.202;27.920;2022-08-24T06:26:00;44.97;;;7.22;;
22260;SDS011;11299;43.202;27.920;2022-08-24T06:28:46;41.97;;;7.05;;
22260;SDS011;11299;43.202;27.920;2022-08-24T06:31:12;45.80;;;7.88;;
22260;SDS011;11299;43.202;27.920;2022-08-24T06:33:37;41.75;;;8.90;;
22260;SDS011;11299;43.202;27.920;2022-08-24T06:36:03;55.25;;;7.85;;
22260;SDS011;11299;43.202;27.920;2022-08-24T06:38:29;39.00;;;8.60;;
22260;SDS011;11299;43.202;27.920;2022-08-24T06:40:55;41.40;;;8.93;;
22260;SDS011;11299;43.202;27.920;2022-08-24T06:43:20;53.70;;;9.43;;
22260;SDS011;11299;43.202;27.920;2022-08-24T06:45:46;41.10;;;8.20;;
22260;SDS011;11299;43.202;27.920;2022-08-24T06:48:12;54.42;;;8.93;;
22260;SDS011;11299;43.202;27.920;2022-08-24T06:50:38;45.65;;;8.05;;
22260;SDS011;11299;43.202;27.920;2022-08-24T06:53:04;38.03;;;8.40;;
22260;SDS011;11299;43.202;27.920;2022-08-24T06:55:29;50.75;;;7.88;;
22260;SDS011;11299;43.202;27.920;2022-08-24T06:57:55;53.65;;;9.00;;
22260;SDS011;11299;43.202;27.920;2022-08-24T07:00:22;35.90;;;7.07;;
22260;SDS011;11299;43.202;27.920;2022-08-24T07:02:47;51.33;;;8.23;;
22260;SDS011;11299;43.202;27.920;2022-08-24T07:05:13;53.22;;;9.40;;
22260;SDS011;11299;43.202;27.920;2022-08-24T07:07:39;54.63;;;9.05;;
22260;SDS011;11299;43.202;27.920;2022-08-24T07:10:05;51.30;;;10.00;;
22260;SDS011;11299;43.202;27.920;2022-08-24T07:12:33;49.50;;;8.88;;
22260;SDS011;11299;43.202;27.920;2022-08-24T07:15:00;46.38;;;9.65;;
22260;SDS011;11299;43.202;27.920;2022-08-24T07:17:26;54.15;;;9.05;;
22260;SDS011;11299;43.202;27.920;2022-08-24T07:19:52;62.65;;;10.63;;
22260;SDS011;11299;43.202;27.920;2022-08-24T07:22:18;61.55;;;13.23;;
22260;SDS011;11299;43.202;27.920;2022-08-24T07:24:43;59.78;;;10.40;;
22260;SDS011;11299;43.202;27.920;2022-08-24T07:27:10;52.20;;;10.13;;
22260;SDS011;11299;43.202;27.920;2022-08-24T07:29:38;54.05;;;9.63;;
22260;SDS011;11299;43.202;27.920;2022-08-24T07:32:04;49.33;;;10.23;;
22260;SDS011;11299;43.202;27.920;2022-08-24T07:34:30;45.28;;;8.70;;
22260;SDS011;11299;43.202;27.920;2022-08-24T07:36:56;48.63;;;9.30;;
22260;SDS011;11299;43.202;27.920;2022-08-24T07:39:24;51.42;;;9.93;;
22260;SDS011;11299;43.202;27.920;2022-08-24T07:41:51;50.20;;;9.35;;
22260;SDS011;11299;43.202;27.920;2022-08-24T07:44:16;46.42;;;9.88;;
22260;SDS011;11299;43.202;27.920;2022-08-24T07:46:42;46.90;;;8.88;;
22260;SDS011;11299;43.202;27.920;2022-08-24T07:49:08;47.92;;;8.75;;
22260;SDS011;11299;43.202;27.920;2022-08-24T07:51:35;72.90;;;9.65;;
22260;SDS011;11299;43.202;27.920;2022-08-24T07:54:01;60.15;;;9.50;;
22260;SDS011;11299;43.202;27.920;2022-08-24T07:56:27;48.92;;;9.45;;
22260;SDS011;11299;43.202;27.920;2022-08-24T07:58:53;55.47;;;9.35;;
22260;SDS011;11299;43.202;27.920;2022-08-24T08:01:19;36.63;;;8.13;;
22260;SDS011;11299;43.202;27.920;2022-08-24T08:03:46;54.53;;;8.38;;
22260;SDS011;11299;43.202;27.920;2022-08-24T08:06:11;59.05;;;10.13;;
22260;SDS011;11299;43.202;27.920;2022-08-24T08:08:39;58.90;;;9.90;;
22260;SDS011;11299;43.202;27.920;2022-08-24T08:11:06;76.63;;;10.70;;
22260;SDS011;11299;43.202;27.920;2022-08-24T08:13:32;59.13;;;9.65;;
22260;SDS011;11299;43.202;27.920;2022-08-24T08:16:00;49.40;;;8.63;;
22260;SDS011;11299;43.202;27.920;2022-08-24T08:18:26;40.35;;;9.18;;
22260;SDS011;11299;43.202;27.920;2022-08-24T08:20:52;38.45;;;9.18;;
22260;SDS011;11299;43.202;27.920;2022-08-24T08:23:18;56.95;;;9.40;;
22260;SDS011;11299;43.202;27.920;2022-08-24T08:26:04;52.35;;;8.10;;
22260;SDS011;11299;43.202;27.920;2022-08-24T08:28:31;52.38;;;9.55;;
22260;SDS011;11299;43.202;27.920;2022-08-24T08:30:58;44.72;;;8.70;;
22260;SDS011;11299;43.202;27.920;2022-08-24T08:33:25;48.15;;;7.97;;
22260;SDS011;11299;43.202;27.920;2022-08-24T08:35:56;51.90;;;9.68;;
22260;SDS011;11299;43.202;27.920;2022-08-24T08:38:30;57.10;;;7.90;;
22260;SDS011;11299;43.202;27.920;2022-08-24T08:41:07;45.15;;;8.52;;
22260;SDS011;11299;43.202;27.920;2022-08-24T08:43:43;41.60;;;8.02;;
22260;SDS011;11299;43.202;27.920;2022-08-24T08:46:36;50.22;;;8.68;;
22260;SDS011;11299;43.202;27.920;2022-08-24T08:49:39;41.65;;;8.40;;
22260;SDS011;11299;43.202;27.920;2022-08-24T08:55:20;52.65;;;9.57;;
22260;SDS011;11299;43.202;27.920;2022-08-24T08:57:50;52.72;;;7.85;;
22260;SDS011;11299;43.202;27.920;2022-08-24T09:00:24;52.85;;;7.70;;
22260;SDS011;11299;43.202;27.920;2022-08-24T09:22:12;49.33;;;8.35;;
22260;SDS011;11299;43.202;27.920;2022-08-24T09:38:28;43.53;;;8.45;;
22260;SDS011;11299;43.202;27.920;2022-08-24T10:02:58;54.35;;;10.00;;
22260;SDS011;11299;43.202;27.920;2022-08-24T10:10:51;46.65;;;10.07;;
22260;SDS011;11299;43.202;27.920;2022-08-24T10:13:31;58.97;;;8.77;;
22260;SDS011;11299;43.202;27.920;2022-08-24T10:19:14;60.15;;;9.10;;
22260;SDS011;11299;43.202;27.920;2022-08-24T10:22:00;55.42;;;9.60;;
22260;SDS011;11299;43.202;27.920;2022-08-24T10:27:45;50.95;;;8.60;;
22260;SDS011;11299;43.202;27.920;2022-08-24T10:30:31;63.28;;;8.93;;
22260;SDS011;11299;43.202;27.920;2022-08-24T10:33:18;48.38;;;8.73;;
22260;SDS011;11299;43.202;27.920;2022-08-24T10:35:56;43.78;;;7.68;;
22260;SDS011;11299;43.202;27.920;2022-08-24T10:38:26;58.42;;;8.98;;
22260;SDS011;11299;43.202;27.920;2022-08-24T10:54:38;57.65;;;8.75;;
22260;SDS011;11299;43.202;27.920;2022-08-24T10:57:11;52.58;;;8.32;;
22260;SDS011;11299;43.202;27.920;2022-08-24T11:02:36;43.60;;;8.13;;
22260;SDS011;11299;43.202;27.920;2022-08-24T11:05:04;51.10;;;8.35;;
22260;SDS011;11299;43.202;27.920;2022-08-24T11:07:32;54.00;;;9.48;;
22260;SDS011;11299;43.202;27.920;2022-08-24T11:09:59;46.90;;;9.20;;
22260;SDS011;11299;43.202;27.920;2022-08-24T11:12:29;55.47;;;8.75;;
22260;SDS011;11299;43.202;27.920;2022-08-24T11:14:58;46.28;;;9.85;;
22260;SDS011;11299;43.202;27.920;2022-08-24T11:17:28;39.25;;;7.75;;
22260;SDS011;11299;43.202;27.920;2022-08-24T11:19:55;57.33;;;8.02;;
22260;SDS011;11299;43.202;27.920;2022-08-24T11:22:36;44.95;;;7.43;;
22260;SDS011;11299;43.202;27.920;2022-08-24T11:25:21;41.45;;;7.85;;
22260;SDS011;11299;43.202;27.920;2022-08-24T11:27:51;38.17;;;8.52;;
22260;SDS011;11299;43.202;27.920;2022-08-24T11:30:25;57.70;;;8.63;;
22260;SDS011;11299;43.202;27.920;2022-08-24T11:35:23;43.97;;;8.82;;
22260;SDS011;11299;43.202;27.920;2022-08-24T11:40:30;55.75;;;8.32;;
22260;SDS011;11299;43.202;27.920;2022-08-24T11:43:13;47.40;;;7.90;;
22260;SDS011;11299;43.202;27.920;2022-08-24T11:48:42;48.83;;;7.88;;
22260;SDS011;11299;43.202;27.920;2022-08-24T11:57:10;49.92;;;9.07;;
22260;SDS011;11299;43.202;27.920;2022-08-24T12:08:09;50.08;;;8.75;;
22260;SDS011;11299;43.202;27.920;2022-08-24T12:17:04;53.50;;;8.32;;
22260;SDS011;11299;43.202;27.920;2022-08-24T12:19:47;43.85;;;7.53;;
22260;SDS011;11299;43.202;27.920;2022-08-24T12:22:17;46.40;;;7.35;;
22260;SDS011;11299;43.202;27.920;2022-08-24T12:24:46;42.00;;;6.97;;
22260;SDS011;11299;43.202;27.920;2022-08-24T12:27:17;47.85;;;8.25;;
22260;SDS011;11299;43.202;27.920;2022-08-24T12:37:46;32.03;;;6.68;;
22260;SDS011;11299;43.202;27.920;2022-08-24T12:40:25;42.23;;;6.40;;
22260;SDS011;11299;43.202;27.920;2022-08-24T12:45:24;47.10;;;7.93;;
22260;SDS011;11299;43.202;27.920;2022-08-24T12:48:01;37.20;;;6.78;;
22260;SDS011;11299;43.202;27.920;2022-08-24T12:56:50;35.97;;;7.97;;
22260;SDS011;11299;43.202;27.920;2022-08-24T12:59:47;49.33;;;7.43;;
22260;SDS011;11299;43.202;27.920;2022-08-24T13:04:43;34.03;;;5.82;;
22260;SDS011;11299;43.202;27.920;2022-08-24T13:07:25;45.42;;;11.18;;
22260;SDS011;11299;43.202;27.920;2022-08-24T13:31:02;35.35;;;6.72;;
22260;SDS011;11299;43.202;27.920;2022-08-24T13:38:57;27.63;;;5.30;;
22260;SDS011;11299;43.202;27.920;2022-08-24T13:44:21;21.92;;;5.95;;
22260;SDS011;11299;43.202;27.920;2022-08-24T13:55:54;28.42;;;6.30;;
22260;SDS011;11299;43.202;27.920;2022-08-24T13:58:50;35.70;;;6.32;;
22260;SDS011;11299;43.202;27.920;2022-08-24T14:09:38;24.75;;;5.18;;
22260;SDS011;11299;43.202;27.920;2022-08-24T14:17:46;18.98;;;5.38;;
22260;SDS011;11299;43.202;27.920;2022-08-24T14:23:26;26.85;;;5.30;;
22260;SDS011;11299;43.202;27.920;2022-08-24T14:31:39;28.30;;;6.18;;
22260;SDS011;11299;43.202;27.920;2022-08-24T14:34:16;29.23;;;6.30;;
22260;SDS011;11299;43.202;27.920;2022-08-24T14:39:54;31.65;;;6.53;;
22260;SDS011;11299;43.202;27.920;2022-08-24T14:45:21;17.17;;;5.68;;
22260;SDS011;11299;43.202;27.920;2022-08-24T14:53:43;24.52;;;5.55;;
22260;SDS011;11299;43.202;27.920;2022-08-24T15:00:06;32.30;;;6.90;;
22260;SDS011;11299;43.202;27.920;2022-08-24T15:07:41;31.20;;;7.25;;
22260;SDS011;11299;43.202;27.920;2022-08-24T15:10:19;33.47;;;6.47;;
22260;SDS011;11299;43.202;27.920;2022-08-24T15:12:52;29.15;;;5.40;;
22260;SDS011;11299;43.202;27.920;2022-08-24T15:15:26;21.45;;;5.75;;
22260;SDS011;11299;43.202;27.920;2022-08-24T15:18:03;27.20;;;5.85;;
22260;SDS011;11299;43.202;27.920;2022-08-24T15:25:50;26.85;;;5.75;;
22260;SDS011;11299;43.202;27.920;2022-08-24T15:28:24;29.77;;;6.78;;
22260;SDS011;11299;43.202;27.920;2022-08-24T15:30:56;24.95;;;6.40;;
22260;SDS011;11299;43.202;27.920;2022-08-24T15:33:28;21.70;;;5.78;;
22260;SDS011;11299;43.202;27.920;2022-08-24T15:36:15;33.47;;;6.30;;
22260;SDS011;11299;43.202;27.920;2022-08-24T15:38:42;29.10;;;6.15;;
22260;SDS011;11299;43.202;27.920;2022-08-24T15:41:13;30.33;;;5.68;;
22260;SDS011;11299;43.202;27.920;2022-08-24T15:43:51;21.15;;;6.30;;
22260;SDS011;11299;43.202;27.920;2022-08-24T15:46:22;26.95;;;6.55;;
22260;SDS011;11299;43.202;27.920;2022-08-24T15:49:22;30.83;;;6.80;;
22260;SDS011;11299;43.202;27.920;2022-08-24T15:51:50;22.35;;;5.85;;
22260;SDS011;11299;43.202;27.920;2022-08-24T15:56:55;38.50;;;9.00;;
22260;SDS011;11299;43.202;27.920;2022-08-24T16:16:06;29.08;;;11.23;;
22260;SDS011;11299;43.202;27.920;2022-08-24T16:18:56;30.02;;;7.90;;
22260;SDS011;11299;43.202;27.920;2022-08-24T16:22:07;31.65;;;9.40;;
22260;SDS011;11299;43.202;27.920;2022-08-24T16:24:29;27.27;;;8.73;;
22260;SDS011;11299;43.202;27.920;2022-08-24T16:27:08;31.50;;;10.25;;
22260;SDS011;11299;43.202;27.920;2022-08-24T16:34:49;27.70;;;5.90;;
22260;SDS011;11299;43.202;27.920;2022-08-24T16:37:27;30.73;;;6.65;;
22260;SDS011;11299;43.202;27.920;2022-08-24T16:39:53;34.13;;;7.82;;
22260;SDS011;11299;43.202;27.920;2022-08-24T16:42:22;36.08;;;9.05;;
22260;SDS011;11299;43.202;27.920;2022-08-24T16:44:51;36.20;;;9.32;;
22260;SDS011;11299;43.202;27.920;2022-08-24T16:47:17;30.52;;;8.02;;
22260;SDS011;11299;43.202;27.920;2022-08-24T16:49:43;34.78;;;7.05;;
22260;SDS011;11299;43.202;27.920;2022-08-24T16:52:10;32.85;;;8.27;;
22260;SDS011;11299;43.202;27.920;2022-08-24T16:54:35;38.78;;;7.30;;
22260;SDS011;11299;43.202;27.920;2022-08-24T16:57:11;46.50;;;7.72;;
22260;SDS011;11299;43.202;27.920;2022-08-24T16:59:43;36.03;;;7.53;;
22260;SDS011;11299;43.202;27.920;2022-08-24T17:02:11;46.80;;;7.50;;
22260;SDS011;11299;43.202;27.920;2022-08-24T17:04:37;29.67;;;6.88;;
22260;SDS011;11299;43.202;27.920;2022-08-24T17:07:03;37.47;;;8.65;;
22260;SDS011;11299;43.202;27.920;2022-08-24T17:09:32;28.83;;;5.95;;
22260;SDS011;11299;43.202;27.920;2022-08-24T17:12:01;38.72;;;8.02;;
22260;SDS011;11299;43.202;27.920;2022-08-24T17:14:27;42.50;;;8.02;;
22260;SDS011;11299;43.202;27.920;2022-08-24T17:16:52;41.00;;;7.55;;
22260;SDS011;11299;43.202;27.920;2022-08-24T17:19:18;40.92;;;8.27;;
22260;SDS011;11299;43.202;27.920;2022-08-24T17:21:45;29.60;;;7.47;;
22260;SDS011;11299;43.202;27.920;2022-08-24T17:24:11;43.70;;;8.80;;
22260;SDS011;11299;43.202;27.920;2022-08-24T17:26:38;42.13;;;8.85;;
22260;SDS011;11299;43.202;27.920;2022-08-24T17:29:06;42.63;;;8.23;;
22260;SDS011;11299;43.202;27.920;2022-08-24T17:31:34;36.65;;;7.13;;
22260;SDS011;11299;43.202;27.920;2022-08-24T17:34:02;44.95;;;7.22;;
22260;SDS011;11299;43.202;27.920;2022-08-24T17:36:29;45.30;;;9.27;;
22260;SDS011;11299;43.202;27.920;2022-08-24T17:38:55;40.78;;;8.80;;
22260;SDS011;11299;43.202;27.920;2022-08-24T17:41:25;41.85;;;6.78;;
22260;SDS011;11299;43.202;27.920;2022-08-24T17:43:51;43.80;;;7.72;;
22260;SDS011;11299;43.202;27.920;2022-08-24T17:46:17;37.53;;;8.13;;
22260;SDS011;11299;43.202;27.920;2022-08-24T17:48:44;39.53;;;8.48;;
22260;SDS011;11299;43.202;27.920;2022-08-24T17:51:11;43.60;;;8.95;;
22260;SDS011;11299;43.202;27.920;2022-08-24T17:53:37;43.58;;;8.27;;
22260;SDS011;11299;43.202;27.920;2022-08-24T17:56:03;49.22;;;9.57;;
22260;SDS011;11299;43.202;27.920;2022-08-24T17:58:31;48.20;;;8.45;;
22260;SDS011;11299;43.202;27.920;2022-08-24T18:01:17;50.58;;;9.77;;
22260;SDS011;11299;43.202;27.920;2022-08-24T18:03:42;45.08;;;9.10;;
22260;SDS011;11299;43.202;27.920;2022-08-24T18:06:08;49.88;;;9.65;;
22260;SDS011;11299;43.202;27.920;2022-08-24T18:08:34;58.55;;;10.18;;
22260;SDS011;11299;43.202;27.920;2022-08-24T18:11:00;53.85;;;12.95;;
22260;SDS011;11299;43.202;27.920;2022-08-24T18:13:25;62.83;;;12.15;;
22260;SDS011;11299;43.202;27.920;2022-08-24T18:15:51;49.47;;;10.27;;
22260;SDS011;11299;43.202;27.920;2022-08-24T18:18:17;66.95;;;11.88;;
22260;SDS011;11299;43.202;27.920;2022-08-24T18:20:42;57.78;;;10.60;;
22260;SDS011;11299;43.202;27.920;2022-08-24T18:23:08;56.17;;;10.57;;
22260;SDS011;11299;43.202;27.920;2022-08-24T18:25:34;59.90;;;11.48;;
22260;SDS011;11299;43.202;27.920;2022-08-24T18:28:02;65.80;;;10.70;;
22260;SDS011;11299;43.202;27.920;2022-08-24T18:30:29;55.58;;;11.07;;
22260;SDS011;11299;43.202;27.920;2022-08-24T18:32:55;76.55;;;10.98;;
22260;SDS011;11299;43.202;27.920;2022-08-24T18:35:21;61.05;;;9.48;;
22260;SDS011;11299;43.202;27.920;2022-08-24T18:37:47;68.55;;;9.35;;
22260;SDS011;11299;43.202;27.920;2022-08-24T18:40:14;71.25;;;10.95;;
22260;SDS011;11299;43.202;27.920;2022-08-24T18:42:41;64.15;;;10.40;;